sensor_id;sensor_type;location;lat;lon;timestamp;P1;durP1;ratioP1;P2;durP2;ratioP2
16189;SDS011;41754;51.498;7.540;2022-09-11T00:00:57;1.45;;;1.08;;
16189;SDS011;41754;51.498;7.540;2022-09-11T00:03:25;1.70;;;0.93;;
16189;SDS011;41754;51.498;7.540;2022-09-11T00:05:55;1.30;;;1.20;;
16189;SDS011;41754;51.498;7.540;2022-09-11T00:08:23;1.35;;;1.27;;
16189;SDS011;41754;51.498;7.540;2022-09-11T00:10:53;1.53;;;1.37;;
16189;SDS011;41754;51.498;7.540;2022-09-11T00:13:22;1.70;;;1.30;;
16189;SDS011;41754;51.498;7.540;2022-09-11T00:15:50;1.15;;;1.08;;
16189;SDS011;41754;51.498;7.540;2022-09-11T00:18:19;3.38;;;1.73;;
16189;SDS011;41754;51.498;7.540;2022-09-11T00:20:47;0.90;;;0.90;;
16189;SDS011;41754;51.498;7.540;2022-09-11T00:23:16;1.10;;;1.00;;
16189;SDS011;41754;51.498;7.540;2022-09-11T00:25:44;2.60;;;1.33;;
16189;SDS011;41754;51.498;7.540;2022-09-11T00:28:15;1.25;;;1.00;;
16189;SDS011;41754;51.498;7.540;2022-09-11T00:30:45;0.73;;;0.73;;
16189;SDS011;41754;51.498;7.540;2022-09-11T00:33:14;1.75;;;1.08;;
16189;SDS011;41754;51.498;7.540;2022-09-11T00:35:42;1.92;;;1.33;;
16189;SDS011;41754;51.498;7.540;2022-09-11T00:38:10;3.60;;;1.80;;
16189;SDS011;41754;51.498;7.540;2022-09-11T00:40:43;1.73;;;1.20;;
16189;SDS011;41754;51.498;7.540;2022-09-11T00:43:12;1.50;;;1.40;;
16189;SDS011;41754;51.498;7.540;2022-09-11T00:45:43;1.02;;;0.90;;
16189;SDS011;41754;51.498;7.540;2022-09-11T00:48:13;2.28;;;0.88;;
16189;SDS011;41754;51.498;7.540;2022-09-11T00:50:43;0.73;;;0.73;;
16189;SDS011;41754;51.498;7.540;2022-09-11T00:53:12;1.13;;;1.03;;
16189;SDS011;41754;51.498;7.540;2022-09-11T00:55:42;1.73;;;1.10;;
16189;SDS011;41754;51.498;7.540;2022-09-11T00:58:14;1.30;;;1.20;;
16189;SDS011;41754;51.498;7.540;2022-09-11T01:00:44;1.48;;;1.23;;
16189;SDS011;41754;51.498;7.540;2022-09-11T01:03:13;1.30;;;1.30;;
16189;SDS011;41754;51.498;7.540;2022-09-11T01:05:41;1.75;;;1.65;;
16189;SDS011;41754;51.498;7.540;2022-09-11T01:08:10;2.30;;;1.20;;
16189;SDS011;41754;51.498;7.540;2022-09-11T01:10:41;1.48;;;1.23;;
16189;SDS011;41754;51.498;7.540;2022-09-11T01:13:23;1.50;;;1.10;;
16189;SDS011;41754;51.498;7.540;2022-09-11T01:15:56;0.63;;;0.63;;
16189;SDS011;41754;51.498;7.540;2022-09-11T01:18:30;1.75;;;1.50;;
16189;SDS011;41754;51.498;7.540;2022-09-11T01:21:03;1.02;;;1.00;;
16189;SDS011;41754;51.498;7.540;2022-09-11T01:23:44;1.60;;;1.50;;
16189;SDS011;41754;51.498;7.540;2022-09-11T01:26:32;1.30;;;1.20;;
16189;SDS011;41754;51.498;7.540;2022-09-11T01:29:07;0.70;;;0.57;;
16189;SDS011;41754;51.498;7.540;2022-09-11T01:31:42;1.00;;;1.00;;
16189;SDS011;41754;51.498;7.540;2022-09-11T01:34:14;3.58;;;1.13;;
16189;SDS011;41754;51.498;7.540;2022-09-11T01:36:47;0.65;;;0.60;;
16189;SDS011;41754;51.498;7.540;2022-09-11T01:39:19;0.70;;;0.70;;
16189;SDS011;41754;51.498;7.540;2022-09-11T01:41:49;1.30;;;0.90;;
16189;SDS011;41754;51.498;7.540;2022-09-11T01:44:23;0.70;;;0.70;;
16189;SDS011;41754;51.498;7.540;2022-09-11T01:46:54;0.75;;;0.75;;
16189;SDS011;41754;51.498;7.540;2022-09-11T01:49:23;0.77;;;0.73;;
16189;SDS011;41754;51.498;7.540;2022-09-11T01:51:55;1.40;;;1.30;;
16189;SDS011;41754;51.498;7.540;2022-09-11T01:54:28;1.10;;;0.77;;
16189;SDS011;41754;51.498;7.540;2022-09-11T01:56:59;1.85;;;1.50;;
16189;SDS011;41754;51.498;7.540;2022-09-11T01:59:32;1.67;;;1.57;;
16189;SDS011;41754;51.498;7.540;2022-09-11T02:02:04;1.40;;;1.15;;
16189;SDS011;41754;51.498;7.540;2022-09-11T02:04:35;1.23;;;1.13;;
16189;SDS011;41754;51.498;7.540;2022-09-11T02:07:07;1.05;;;0.98;;
16189;SDS011;41754;51.498;7.540;2022-09-11T02:09:38;3.00;;;1.57;;
16189;SDS011;41754;51.498;7.540;2022-09-11T02:12:09;0.50;;;0.50;;
16189;SDS011;41754;51.498;7.540;2022-09-11T02:14:40;1.52;;;1.23;;
16189;SDS011;41754;51.498;7.540;2022-09-11T02:17:12;1.00;;;0.90;;
16189;SDS011;41754;51.498;7.540;2022-09-11T02:19:42;0.88;;;0.88;;
16189;SDS011;41754;51.498;7.540;2022-09-11T02:22:10;1.20;;;1.10;;
16189;SDS011;41754;51.498;7.540;2022-09-11T02:24:37;2.95;;;1.88;;
16189;SDS011;41754;51.498;7.540;2022-09-11T02:27:07;1.17;;;1.08;;
16189;SDS011;41754;51.498;7.540;2022-09-11T02:29:37;1.40;;;1.30;;
16189;SDS011;41754;51.498;7.540;2022-09-11T02:32:06;2.47;;;1.45;;
16189;SDS011;41754;51.498;7.540;2022-09-11T02:34:36;1.15;;;1.00;;
16189;SDS011;41754;51.498;7.540;2022-09-11T02:37:18;1.70;;;1.33;;
16189;SDS011;41754;51.498;7.540;2022-09-11T02:40:01;1.48;;;0.77;;
16189;SDS011;41754;51.498;7.540;2022-09-11T02:42:39;1.58;;;1.48;;
16189;SDS011;41754;51.498;7.540;2022-09-11T02:45:15;1.50;;;0.68;;
16189;SDS011;41754;51.498;7.540;2022-09-11T02:47:52;4.57;;;1.10;;
16189;SDS011;41754;51.498;7.540;2022-09-11T02:50:27;2.13;;;1.27;;
16189;SDS011;41754;51.498;7.540;2022-09-11T02:53:00;1.60;;;0.70;;
16189;SDS011;41754;51.498;7.540;2022-09-11T02:55:33;2.38;;;1.25;;
16189;SDS011;41754;51.498;7.540;2022-09-11T02:58:07;1.08;;;1.00;;
16189;SDS011;41754;51.498;7.540;2022-09-11T03:00:38;1.42;;;1.30;;
16189;SDS011;41754;51.498;7.540;2022-09-11T03:03:08;1.95;;;1.13;;
16189;SDS011;41754;51.498;7.540;2022-09-11T03:05:36;1.35;;;1.00;;
16189;SDS011;41754;51.498;7.540;2022-09-11T03:08:05;0.60;;;0.60;;
16189;SDS011;41754;51.498;7.540;2022-09-11T03:10:34;1.03;;;0.77;;
16189;SDS011;41754;51.498;7.540;2022-09-11T03:13:07;1.42;;;1.33;;
16189;SDS011;41754;51.498;7.540;2022-09-11T03:15:35;1.50;;;1.40;;
16189;SDS011;41754;51.498;7.540;2022-09-11T03:18:03;1.30;;;1.20;;
16189;SDS011;41754;51.498;7.540;2022-09-11T03:20:32;0.68;;;0.68;;
16189;SDS011;41754;51.498;7.540;2022-09-11T03:23:00;2.10;;;1.52;;
16189;SDS011;41754;51.498;7.540;2022-09-11T03:25:33;1.52;;;1.08;;
16189;SDS011;41754;51.498;7.540;2022-09-11T03:28:02;1.38;;;1.27;;
16189;SDS011;41754;51.498;7.540;2022-09-11T03:30:32;2.00;;;1.20;;
16189;SDS011;41754;51.498;7.540;2022-09-11T03:33:00;0.68;;;0.68;;
16189;SDS011;41754;51.498;7.540;2022-09-11T03:35:28;1.45;;;1.35;;
16189;SDS011;41754;51.498;7.540;2022-09-11T03:37:57;1.02;;;1.00;;
16189;SDS011;41754;51.498;7.540;2022-09-11T03:40:25;1.58;;;0.88;;
16189;SDS011;41754;51.498;7.540;2022-09-11T03:42:53;3.13;;;1.23;;
16189;SDS011;41754;51.498;7.540;2022-09-11T03:45:21;1.00;;;0.90;;
16189;SDS011;41754;51.498;7.540;2022-09-11T03:47:49;0.82;;;0.82;;
16189;SDS011;41754;51.498;7.540;2022-09-11T03:50:17;1.30;;;1.20;;
16189;SDS011;41754;51.498;7.540;2022-09-11T03:52:45;1.25;;;1.15;;
16189;SDS011;41754;51.498;7.540;2022-09-11T03:55:14;1.38;;;1.27;;
16189;SDS011;41754;51.498;7.540;2022-09-11T03:57:42;1.42;;;1.25;;
16189;SDS011;41754;51.498;7.540;2022-09-11T04:00:10;1.20;;;1.10;;
16189;SDS011;41754;51.498;7.540;2022-09-11T04:02:51;1.88;;;1.40;;
16189;SDS011;41754;51.498;7.540;2022-09-11T04:05:35;1.40;;;1.30;;
16189;SDS011;41754;51.498;7.540;2022-09-11T04:08:04;1.15;;;1.15;;
16189;SDS011;41754;51.498;7.540;2022-09-11T04:10:36;5.10;;;0.80;;
16189;SDS011;41754;51.498;7.540;2022-09-11T04:13:05;5.38;;;2.97;;
16189;SDS011;41754;51.498;7.540;2022-09-11T04:15:33;2.88;;;2.22;;
16189;SDS011;41754;51.498;7.540;2022-09-11T04:18:04;3.95;;;2.15;;
16189;SDS011;41754;51.498;7.540;2022-09-11T04:20:33;4.65;;;3.03;;
16189;SDS011;41754;51.498;7.540;2022-09-11T04:23:00;1.83;;;1.73;;
16189;SDS011;41754;51.498;7.540;2022-09-11T04:25:29;2.92;;;2.65;;
16189;SDS011;41754;51.498;7.540;2022-09-11T04:28:00;2.60;;;2.30;;
16189;SDS011;41754;51.498;7.540;2022-09-11T04:30:27;2.88;;;2.67;;
16189;SDS011;41754;51.498;7.540;2022-09-11T04:32:55;2.22;;;1.95;;
16189;SDS011;41754;51.498;7.540;2022-09-11T04:35:24;2.75;;;1.95;;
16189;SDS011;41754;51.498;7.540;2022-09-11T04:37:55;2.55;;;1.60;;
16189;SDS011;41754;51.498;7.540;2022-09-11T04:40:23;3.70;;;2.90;;
16189;SDS011;41754;51.498;7.540;2022-09-11T04:42:51;3.22;;;2.15;;
16189;SDS011;41754;51.498;7.540;2022-09-11T04:45:20;4.78;;;2.90;;
16189;SDS011;41754;51.498;7.540;2022-09-11T04:47:50;2.50;;;2.30;;
16189;SDS011;41754;51.498;7.540;2022-09-11T04:50:19;3.45;;;2.00;;
16189;SDS011;41754;51.498;7.540;2022-09-11T04:53:05;3.35;;;3.05;;
16189;SDS011;41754;51.498;7.540;2022-09-11T04:55:33;4.60;;;3.53;;
16189;SDS011;41754;51.498;7.540;2022-09-11T04:58:01;4.20;;;2.60;;
16189;SDS011;41754;51.498;7.540;2022-09-11T05:00:31;3.83;;;2.90;;
16189;SDS011;41754;51.498;7.540;2022-09-11T05:03:00;3.50;;;2.83;;
16189;SDS011;41754;51.498;7.540;2022-09-11T05:05:28;7.95;;;3.08;;
16189;SDS011;41754;51.498;7.540;2022-09-11T05:07:56;4.15;;;1.70;;
16189;SDS011;41754;51.498;7.540;2022-09-11T05:10:24;3.03;;;2.28;;
16189;SDS011;41754;51.498;7.540;2022-09-11T05:12:53;3.08;;;2.63;;
16189;SDS011;41754;51.498;7.540;2022-09-11T05:15:23;3.75;;;2.92;;
16189;SDS011;41754;51.498;7.540;2022-09-11T05:17:52;6.13;;;2.63;;
16189;SDS011;41754;51.498;7.540;2022-09-11T05:20:20;2.50;;;2.17;;
16189;SDS011;41754;51.498;7.540;2022-09-11T05:22:48;3.05;;;2.85;;
16189;SDS011;41754;51.498;7.540;2022-09-11T05:25:16;2.65;;;2.05;;
16189;SDS011;41754;51.498;7.540;2022-09-11T05:27:45;3.38;;;3.00;;
16189;SDS011;41754;51.498;7.540;2022-09-11T05:30:13;2.87;;;2.67;;
16189;SDS011;41754;51.498;7.540;2022-09-11T05:32:41;2.42;;;2.22;;
16189;SDS011;41754;51.498;7.540;2022-09-11T05:35:11;4.18;;;2.90;;
16189;SDS011;41754;51.498;7.540;2022-09-11T05:37:39;3.53;;;3.23;;
16189;SDS011;41754;51.498;7.540;2022-09-11T05:40:08;7.50;;;2.92;;
16189;SDS011;41754;51.498;7.540;2022-09-11T05:42:38;2.03;;;1.80;;
16189;SDS011;41754;51.498;7.540;2022-09-11T05:45:06;2.95;;;2.20;;
16189;SDS011;41754;51.498;7.540;2022-09-11T05:47:35;2.17;;;1.77;;
16189;SDS011;41754;51.498;7.540;2022-09-11T05:50:03;2.90;;;2.60;;
16189;SDS011;41754;51.498;7.540;2022-09-11T05:52:32;2.70;;;2.20;;
16189;SDS011;41754;51.498;7.540;2022-09-11T05:55:01;1.98;;;1.15;;
16189;SDS011;41754;51.498;7.540;2022-09-11T05:57:30;1.85;;;1.75;;
16189;SDS011;41754;51.498;7.540;2022-09-11T05:59:58;2.40;;;2.17;;
16189;SDS011;41754;51.498;7.540;2022-09-11T06:02:27;4.35;;;3.40;;
16189;SDS011;41754;51.498;7.540;2022-09-11T06:04:56;4.05;;;2.72;;
16189;SDS011;41754;51.498;7.540;2022-09-11T06:07:24;2.30;;;1.85;;
16189;SDS011;41754;51.498;7.540;2022-09-11T06:09:54;3.07;;;2.20;;
16189;SDS011;41754;51.498;7.540;2022-09-11T06:12:29;1.87;;;1.47;;
16189;SDS011;41754;51.498;7.540;2022-09-11T06:14:57;1.70;;;1.60;;
16189;SDS011;41754;51.498;7.540;2022-09-11T06:17:25;4.38;;;2.65;;
16189;SDS011;41754;51.498;7.540;2022-09-11T06:19:53;3.85;;;3.20;;
16189;SDS011;41754;51.498;7.540;2022-09-11T06:22:21;5.43;;;2.97;;
16189;SDS011;41754;51.498;7.540;2022-09-11T06:24:51;5.70;;;3.72;;
16189;SDS011;41754;51.498;7.540;2022-09-11T06:27:20;3.90;;;2.65;;
16189;SDS011;41754;51.498;7.540;2022-09-11T06:29:49;5.97;;;2.95;;
16189;SDS011;41754;51.498;7.540;2022-09-11T06:32:18;5.18;;;3.53;;
16189;SDS011;41754;51.498;7.540;2022-09-11T06:34:46;4.75;;;2.85;;
16189;SDS011;41754;51.498;7.540;2022-09-11T06:37:14;15.93;;;3.83;;
16189;SDS011;41754;51.498;7.540;2022-09-11T06:39:42;6.20;;;2.23;;
16189;SDS011;41754;51.498;7.540;2022-09-11T06:42:16;3.87;;;3.00;;
16189;SDS011;41754;51.498;7.540;2022-09-11T06:44:46;5.70;;;3.63;;
16189;SDS011;41754;51.498;7.540;2022-09-11T06:47:16;11.20;;;3.90;;
16189;SDS011;41754;51.498;7.540;2022-09-11T06:49:46;2.85;;;2.65;;
16189;SDS011;41754;51.498;7.540;2022-09-11T06:52:50;3.77;;;2.93;;
16189;SDS011;41754;51.498;7.540;2022-09-11T06:55:22;2.73;;;2.50;;
16189;SDS011;41754;51.498;7.540;2022-09-11T06:57:56;6.35;;;3.63;;
16189;SDS011;41754;51.498;7.540;2022-09-11T07:00:27;3.10;;;2.60;;
16189;SDS011;41754;51.498;7.540;2022-09-11T07:02:56;6.90;;;3.97;;
16189;SDS011;41754;51.498;7.540;2022-09-11T07:05:24;3.33;;;2.30;;
16189;SDS011;41754;51.498;7.540;2022-09-11T07:07:54;8.63;;;3.83;;
16189;SDS011;41754;51.498;7.540;2022-09-11T07:10:25;6.75;;;3.78;;
16189;SDS011;41754;51.498;7.540;2022-09-11T07:12:56;2.63;;;2.47;;
16189;SDS011;41754;51.498;7.540;2022-09-11T07:15:24;15.27;;;3.92;;
16189;SDS011;41754;51.498;7.540;2022-09-11T07:17:53;4.93;;;4.00;;
16189;SDS011;41754;51.498;7.540;2022-09-11T07:20:22;4.50;;;3.38;;
16189;SDS011;41754;51.498;7.540;2022-09-11T07:22:51;4.70;;;2.92;;
16189;SDS011;41754;51.498;7.540;2022-09-11T07:25:19;3.22;;;3.00;;
16189;SDS011;41754;51.498;7.540;2022-09-11T07:27:47;2.55;;;2.35;;
16189;SDS011;41754;51.498;7.540;2022-09-11T07:30:18;8.75;;;3.85;;
16189;SDS011;41754;51.498;7.540;2022-09-11T07:32:49;5.97;;;3.33;;
16189;SDS011;41754;51.498;7.540;2022-09-11T07:35:19;4.10;;;3.30;;
16189;SDS011;41754;51.498;7.540;2022-09-11T07:37:50;4.05;;;2.70;;
16189;SDS011;41754;51.498;7.540;2022-09-11T07:40:22;4.32;;;2.63;;
16189;SDS011;41754;51.498;7.540;2022-09-11T07:42:50;4.87;;;2.60;;
16189;SDS011;41754;51.498;7.540;2022-09-11T07:45:19;2.83;;;2.58;;
16189;SDS011;41754;51.498;7.540;2022-09-11T07:47:48;3.10;;;2.70;;
16189;SDS011;41754;51.498;7.540;2022-09-11T07:50:16;2.83;;;2.63;;
16189;SDS011;41754;51.498;7.540;2022-09-11T07:52:45;3.50;;;2.20;;
16189;SDS011;41754;51.498;7.540;2022-09-11T07:55:14;2.88;;;2.45;;
16189;SDS011;41754;51.498;7.540;2022-09-11T07:57:42;3.35;;;2.78;;
16189;SDS011;41754;51.498;7.540;2022-09-11T08:00:11;3.38;;;2.13;;
16189;SDS011;41754;51.498;7.540;2022-09-11T08:02:52;3.10;;;2.80;;
16189;SDS011;41754;51.498;7.540;2022-09-11T08:05:28;3.15;;;2.78;;
16189;SDS011;41754;51.498;7.540;2022-09-11T08:07:58;8.60;;;3.55;;
16189;SDS011;41754;51.498;7.540;2022-09-11T08:10:27;4.88;;;2.70;;
16189;SDS011;41754;51.498;7.540;2022-09-11T08:12:56;4.47;;;2.80;;
16189;SDS011;41754;51.498;7.540;2022-09-11T08:15:30;7.13;;;3.28;;
16189;SDS011;41754;51.498;7.540;2022-09-11T08:18:00;4.90;;;2.97;;
16189;SDS011;41754;51.498;7.540;2022-09-11T08:20:29;6.77;;;3.73;;
16189;SDS011;41754;51.498;7.540;2022-09-11T08:22:59;9.85;;;3.95;;
16189;SDS011;41754;51.498;7.540;2022-09-11T08:25:27;4.35;;;4.00;;
16189;SDS011;41754;51.498;7.540;2022-09-11T08:27:56;5.53;;;3.95;;
16189;SDS011;41754;51.498;7.540;2022-09-11T08:30:25;3.00;;;2.53;;
16189;SDS011;41754;51.498;7.540;2022-09-11T08:32:53;3.10;;;2.80;;
16189;SDS011;41754;51.498;7.540;2022-09-11T08:35:21;5.22;;;2.78;;
16189;SDS011;41754;51.498;7.540;2022-09-11T08:37:49;4.47;;;2.45;;
16189;SDS011;41754;51.498;7.540;2022-09-11T08:40:21;3.42;;;3.13;;
16189;SDS011;41754;51.498;7.540;2022-09-11T08:42:50;2.38;;;1.70;;
16189;SDS011;41754;51.498;7.540;2022-09-11T08:45:19;4.80;;;3.40;;
16189;SDS011;41754;51.498;7.540;2022-09-11T08:47:49;3.50;;;2.53;;
16189;SDS011;41754;51.498;7.540;2022-09-11T08:50:19;3.87;;;2.80;;
16189;SDS011;41754;51.498;7.540;2022-09-11T08:52:50;4.28;;;3.03;;
16189;SDS011;41754;51.498;7.540;2022-09-11T08:55:22;5.22;;;2.25;;
16189;SDS011;41754;51.498;7.540;2022-09-11T08:57:57;1.77;;;1.42;;
16189;SDS011;41754;51.498;7.540;2022-09-11T09:00:30;5.47;;;2.00;;
16189;SDS011;41754;51.498;7.540;2022-09-11T09:03:05;2.40;;;2.17;;
16189;SDS011;41754;51.498;7.540;2022-09-11T09:05:50;58.35;;;40.67;;
16189;SDS011;41754;51.498;7.540;2022-09-11T09:08:35;61.17;;;44.83;;
16189;SDS011;41754;51.498;7.540;2022-09-11T09:11:15;83.85;;;48.22;;
16189;SDS011;41754;51.498;7.540;2022-09-11T09:13:50;63.73;;;45.33;;
16189;SDS011;41754;51.498;7.540;2022-09-11T09:16:31;71.43;;;45.47;;
16189;SDS011;41754;51.498;7.540;2022-09-11T09:19:06;58.50;;;42.60;;
16189;SDS011;41754;51.498;7.540;2022-09-11T09:21:40;76.93;;;46.88;;
16189;SDS011;41754;51.498;7.540;2022-09-11T09:24:11;77.30;;;49.17;;
16189;SDS011;41754;51.498;7.540;2022-09-11T09:26:49;64.18;;;45.28;;
16189;SDS011;41754;51.498;7.540;2022-09-11T09:29:19;73.28;;;47.70;;
16189;SDS011;41754;51.498;7.540;2022-09-11T09:31:49;58.80;;;45.08;;
16189;SDS011;41754;51.498;7.540;2022-09-11T09:34:19;67.78;;;47.42;;
16189;SDS011;41754;51.498;7.540;2022-09-11T09:36:51;56.38;;;44.92;;
16189;SDS011;41754;51.498;7.540;2022-09-11T09:39:23;72.95;;;48.92;;
16189;SDS011;41754;51.498;7.540;2022-09-11T09:42:03;62.00;;;47.10;;
16189;SDS011;41754;51.498;7.540;2022-09-11T09:44:58;67.40;;;48.22;;
16189;SDS011;41754;51.498;7.540;2022-09-11T09:47:34;60.13;;;46.85;;
16189;SDS011;41754;51.498;7.540;2022-09-11T09:50:09;70.85;;;51.10;;
16189;SDS011;41754;51.498;7.540;2022-09-11T09:52:45;62.25;;;49.10;;
16189;SDS011;41754;51.498;7.540;2022-09-11T09:55:14;65.40;;;50.37;;
16189;SDS011;41754;51.498;7.540;2022-09-11T09:57:45;60.95;;;48.83;;
16189;SDS011;41754;51.498;7.540;2022-09-11T10:00:14;48.15;;;42.88;;
16189;SDS011;41754;51.498;7.540;2022-09-11T10:02:45;53.13;;;45.42;;
16189;SDS011;41754;51.498;7.540;2022-09-11T10:05:20;61.90;;;48.20;;
16189;SDS011;41754;51.498;7.540;2022-09-11T10:07:52;55.05;;;46.13;;
16189;SDS011;41754;51.498;7.540;2022-09-11T10:10:26;48.85;;;42.50;;
16189;SDS011;41754;51.498;7.540;2022-09-11T10:12:57;40.50;;;35.85;;
16189;SDS011;41754;51.498;7.540;2022-09-11T10:15:44;39.88;;;35.58;;
16189;SDS011;41754;51.498;7.540;2022-09-11T10:21:22;32.58;;;29.20;;
16189;SDS011;41754;51.498;7.540;2022-09-11T10:23:52;31.77;;;28.47;;
16189;SDS011;41754;51.498;7.540;2022-09-11T10:26:22;33.72;;;30.30;;
16189;SDS011;41754;51.498;7.540;2022-09-11T10:28:55;33.38;;;29.77;;
16189;SDS011;41754;51.498;7.540;2022-09-11T10:31:26;31.67;;;28.58;;
16189;SDS011;41754;51.498;7.540;2022-09-11T10:33:56;28.20;;;25.40;;
16189;SDS011;41754;51.498;7.540;2022-09-11T10:36:25;30.40;;;27.38;;
16189;SDS011;41754;51.498;7.540;2022-09-11T10:38:54;27.03;;;24.47;;
16189;SDS011;41754;51.498;7.540;2022-09-11T10:41:22;27.25;;;24.65;;
16189;SDS011;41754;51.498;7.540;2022-09-11T10:43:52;26.85;;;24.13;;
16189;SDS011;41754;51.498;7.540;2022-09-11T10:46:31;27.35;;;24.73;;
16189;SDS011;41754;51.498;7.540;2022-09-11T10:49:07;27.87;;;25.27;;
16189;SDS011;41754;51.498;7.540;2022-09-11T10:51:56;28.25;;;25.55;;
16189;SDS011;41754;51.498;7.540;2022-09-11T10:54:28;28.05;;;25.27;;
16189;SDS011;41754;51.498;7.540;2022-09-11T10:57:02;27.23;;;24.73;;
16189;SDS011;41754;51.498;7.540;2022-09-11T10:59:36;29.52;;;26.73;;
16189;SDS011;41754;51.498;7.540;2022-09-11T11:02:18;28.17;;;25.48;;
16189;SDS011;41754;51.498;7.540;2022-09-11T11:04:47;27.75;;;25.15;;
16189;SDS011;41754;51.498;7.540;2022-09-11T11:07:20;28.23;;;25.45;;
16189;SDS011;41754;51.498;7.540;2022-09-11T11:10:04;26.07;;;23.67;;
16189;SDS011;41754;51.498;7.540;2022-09-11T11:12:41;25.17;;;22.88;;
16189;SDS011;41754;51.498;7.540;2022-09-11T11:15:27;27.85;;;25.25;;
16189;SDS011;41754;51.498;7.540;2022-09-11T11:20:48;26.75;;;24.25;;
16189;SDS011;41754;51.498;7.540;2022-09-11T11:23:24;27.30;;;24.77;;
16189;SDS011;41754;51.498;7.540;2022-09-11T11:26:02;27.52;;;24.75;;
16189;SDS011;41754;51.498;7.540;2022-09-11T11:28:44;28.67;;;25.98;;
16189;SDS011;41754;51.498;7.540;2022-09-11T11:31:25;27.20;;;24.60;;
16189;SDS011;41754;51.498;7.540;2022-09-11T11:34:03;28.92;;;25.98;;
16189;SDS011;41754;51.498;7.540;2022-09-11T11:36:38;29.58;;;26.88;;
16189;SDS011;41754;51.498;7.540;2022-09-11T11:39:12;28.30;;;25.60;;
16189;SDS011;41754;51.498;7.540;2022-09-11T11:41:45;28.60;;;26.00;;
16189;SDS011;41754;51.498;7.540;2022-09-11T11:44:17;27.60;;;25.10;;
16189;SDS011;41754;51.498;7.540;2022-09-11T11:46:53;26.95;;;24.50;;
16189;SDS011;41754;51.498;7.540;2022-09-11T11:49:25;30.15;;;27.45;;
16189;SDS011;41754;51.498;7.540;2022-09-11T11:52:11;29.85;;;27.25;;
16189;SDS011;41754;51.498;7.540;2022-09-11T11:54:47;32.55;;;29.63;;
16189;SDS011;41754;51.498;7.540;2022-09-11T11:57:19;32.22;;;29.40;;
16189;SDS011;41754;51.498;7.540;2022-09-11T11:59:49;30.75;;;27.95;;
16189;SDS011;41754;51.498;7.540;2022-09-11T12:02:25;29.70;;;27.02;;
16189;SDS011;41754;51.498;7.540;2022-09-11T12:04:57;29.30;;;26.67;;
16189;SDS011;41754;51.498;7.540;2022-09-11T12:07:28;31.40;;;28.60;;
16189;SDS011;41754;51.498;7.540;2022-09-11T12:09:56;31.95;;;28.95;;
16189;SDS011;41754;51.498;7.540;2022-09-11T12:12:26;30.23;;;27.53;;
16189;SDS011;41754;51.498;7.540;2022-09-11T12:14:55;28.57;;;25.97;;
16189;SDS011;41754;51.498;7.540;2022-09-11T12:17:30;27.95;;;25.45;;
16189;SDS011;41754;51.498;7.540;2022-09-11T12:20:12;28.65;;;25.85;;
16189;SDS011;41754;51.498;7.540;2022-09-11T12:22:51;28.80;;;26.02;;
16189;SDS011;41754;51.498;7.540;2022-09-11T12:28:19;26.38;;;23.90;;
16189;SDS011;41754;51.498;7.540;2022-09-11T12:30:57;26.60;;;24.08;;
16189;SDS011;41754;51.498;7.540;2022-09-11T12:36:27;26.05;;;23.55;;
16189;SDS011;41754;51.498;7.540;2022-09-11T12:39:00;24.63;;;22.35;;
16189;SDS011;41754;51.498;7.540;2022-09-11T12:41:30;23.75;;;21.35;;
16189;SDS011;41754;51.498;7.540;2022-09-11T12:43:59;22.42;;;20.33;;
16189;SDS011;41754;51.498;7.540;2022-09-11T12:49:49;21.13;;;19.23;;
16189;SDS011;41754;51.498;7.540;2022-09-11T12:52:23;20.30;;;18.45;;
16189;SDS011;41754;51.498;7.540;2022-09-11T12:54:54;18.67;;;16.98;;
16189;SDS011;41754;51.498;7.540;2022-09-11T12:57:24;17.83;;;16.25;;
16189;SDS011;41754;51.498;7.540;2022-09-11T12:59:54;17.35;;;15.85;;
16189;SDS011;41754;51.498;7.540;2022-09-11T13:02:27;15.50;;;14.10;;
16189;SDS011;41754;51.498;7.540;2022-09-11T13:05:02;16.88;;;15.48;;
16189;SDS011;41754;51.498;7.540;2022-09-11T13:07:32;15.07;;;13.82;;
16189;SDS011;41754;51.498;7.540;2022-09-11T13:10:07;15.38;;;14.07;;
16189;SDS011;41754;51.498;7.540;2022-09-11T13:12:57;14.48;;;13.32;;
16189;SDS011;41754;51.498;7.540;2022-09-11T13:15:36;15.30;;;14.10;;
16189;SDS011;41754;51.498;7.540;2022-09-11T13:18:20;13.70;;;12.60;;
16189;SDS011;41754;51.498;7.540;2022-09-11T13:20:58;13.23;;;12.23;;
16189;SDS011;41754;51.498;7.540;2022-09-11T13:23:27;13.13;;;12.03;;
16189;SDS011;41754;51.498;7.540;2022-09-11T13:25:55;13.13;;;12.13;;
16189;SDS011;41754;51.498;7.540;2022-09-11T13:28:23;12.80;;;11.80;;
16189;SDS011;41754;51.498;7.540;2022-09-11T13:30:56;12.27;;;11.30;;
16189;SDS011;41754;51.498;7.540;2022-09-11T13:33:25;11.80;;;10.88;;
16189;SDS011;41754;51.498;7.540;2022-09-11T13:35:55;10.73;;;9.87;;
16189;SDS011;41754;51.498;7.540;2022-09-11T13:38:28;12.27;;;11.38;;
16189;SDS011;41754;51.498;7.540;2022-09-11T13:40:57;12.27;;;11.27;;
16189;SDS011;41754;51.498;7.540;2022-09-11T13:43:29;12.10;;;11.20;;
16189;SDS011;41754;51.498;7.540;2022-09-11T13:46:15;12.18;;;11.18;;
16189;SDS011;41754;51.498;7.540;2022-09-11T13:48:47;11.30;;;10.32;;
16189;SDS011;41754;51.498;7.540;2022-09-11T13:51:18;10.82;;;10.02;;
16189;SDS011;41754;51.498;7.540;2022-09-11T13:53:50;11.37;;;10.47;;
16189;SDS011;41754;51.498;7.540;2022-09-11T13:56:35;10.82;;;10.02;;
16189;SDS011;41754;51.498;7.540;2022-09-11T14:05:16;9.70;;;9.00;;
16189;SDS011;41754;51.498;7.540;2022-09-11T14:07:59;10.00;;;9.15;;
16189;SDS011;41754;51.498;7.540;2022-09-11T14:10:29;9.57;;;8.88;;
16189;SDS011;41754;51.498;7.540;2022-09-11T14:13:01;10.55;;;9.70;;
16189;SDS011;41754;51.498;7.540;2022-09-11T14:15:33;8.85;;;8.05;;
16189;SDS011;41754;51.498;7.540;2022-09-11T14:18:10;7.65;;;7.05;;
16189;SDS011;41754;51.498;7.540;2022-09-11T14:20:42;8.70;;;8.00;;
16189;SDS011;41754;51.498;7.540;2022-09-11T14:23:14;8.13;;;7.45;;
16189;SDS011;41754;51.498;7.540;2022-09-11T14:28:34;7.50;;;6.90;;
16189;SDS011;41754;51.498;7.540;2022-09-11T14:31:03;7.32;;;6.70;;
16189;SDS011;41754;51.498;7.540;2022-09-11T14:33:33;7.75;;;7.15;;
16189;SDS011;41754;51.498;7.540;2022-09-11T14:36:01;7.25;;;6.65;;
16189;SDS011;41754;51.498;7.540;2022-09-11T14:38:35;8.00;;;7.28;;
16189;SDS011;41754;51.498;7.540;2022-09-11T14:41:04;7.35;;;6.75;;
16189;SDS011;41754;51.498;7.540;2022-09-11T14:43:33;7.75;;;7.15;;
16189;SDS011;41754;51.498;7.540;2022-09-11T14:46:02;8.30;;;7.60;;
16189;SDS011;41754;51.498;7.540;2022-09-11T14:48:30;8.23;;;7.50;;
16189;SDS011;41754;51.498;7.540;2022-09-11T14:51:00;9.05;;;8.25;;
16189;SDS011;41754;51.498;7.540;2022-09-11T14:53:39;9.18;;;8.48;;
16189;SDS011;41754;51.498;7.540;2022-09-11T14:56:08;10.35;;;9.45;;
16189;SDS011;41754;51.498;7.540;2022-09-11T14:58:36;9.43;;;8.60;;
16189;SDS011;41754;51.498;7.540;2022-09-11T15:01:04;9.27;;;8.48;;
16189;SDS011;41754;51.498;7.540;2022-09-11T15:03:32;9.82;;;8.90;;
16189;SDS011;41754;51.498;7.540;2022-09-11T15:06:00;9.60;;;8.70;;
16189;SDS011;41754;51.498;7.540;2022-09-11T15:08:28;9.00;;;8.30;;
16189;SDS011;41754;51.498;7.540;2022-09-11T15:10:57;8.25;;;7.53;;
16189;SDS011;41754;51.498;7.540;2022-09-11T15:13:25;9.02;;;7.75;;
16189;SDS011;41754;51.498;7.540;2022-09-11T15:15:52;7.97;;;7.28;;
16189;SDS011;41754;51.498;7.540;2022-09-11T15:18:21;8.80;;;7.90;;
16189;SDS011;41754;51.498;7.540;2022-09-11T15:20:49;8.67;;;7.87;;
16189;SDS011;41754;51.498;7.540;2022-09-11T15:23:16;8.88;;;7.97;;
16189;SDS011;41754;51.498;7.540;2022-09-11T15:25:44;8.05;;;7.35;;
16189;SDS011;41754;51.498;7.540;2022-09-11T15:28:13;7.88;;;7.18;;
16189;SDS011;41754;51.498;7.540;2022-09-11T15:30:41;8.15;;;7.35;;